Time;durP1;ratioP1;P1;durP2;ratioP2;P2;SDS_P1;SDS_P2;PMS_P1;PMS_P2;Temp;Humidity;BMP_temperature;BMP_pressure;BME280_temperature;BME280_humidity;BME280_pressure;Samples;Min_cycle;Max_cycle;Signal;HPM_P1;HPM_P2
2021/01/07 00:00:07;;;;;;;6.57;1.70;;;;;;;;;;5015335;28;20033;-56
2021/01/07 00:02:34;;;;;;;5.63;2.30;;;;;;;;;;5015203;28;20112;-56
2021/01/07 00:05:01;;;;;;;6.70;2.30;;;;;;;;;;5015242;28;20081;-57
2021/01/07 00:07:28;;;;;;;12.50;2.50;;;;;;;;;;5015005;28;20109;-57
2021/01/07 00:09:55;;;;;;;5.97;2.90;;;;;;;;;;5014832;28;20041;-56
2021/01/07 00:12:21;;;;;;;4.47;1.97;;;;;;;;;;5015585;28;20037;-56
2021/01/07 00:14:48;;;;;;;5.00;2.00;;;;;;;;;;5014916;28;20033;-56
2021/01/07 00:17:15;;;;;;;3.90;2.10;;;;;;;;;;5014980;28;20026;-56
2021/01/07 00:19:42;;;;;;;4.33;2.20;;;;;;;;;;5014825;28;20026;-56
2021/01/07 00:22:08;;;;;;;4.83;2.10;;;;;;;;;;5015530;28;20053;-56
2021/01/07 00:24:35;;;;;;;6.10;2.53;;;;;;;;;;5014777;28;20056;-56
2021/01/07 00:27:02;;;;;;;8.13;2.33;;;;;;;;;;5014794;28;20026;-56
2021/01/07 00:29:29;;;;;;;8.80;2.40;;;;;;;;;;5014556;28;20022;-56
2021/01/07 00:31:55;;;;;;;11.40;3.00;;;;;;;;;;5014425;28;20034;-56
2021/01/07 00:34:22;;;;;;;4.90;2.60;;;;;;;;;;5014639;28;20024;-56
2021/01/07 00:36:58;;;;;;;9.53;3.10;;;;;;;;;;5014618;28;20032;-56
2021/01/07 00:39:25;;;;;;;4.93;2.30;;;;;;;;;;5014586;28;20026;-56
2021/01/07 00:41:55;;;;;;;8.97;2.83;;;;;;;;;;5014492;28;20492;-56
2021/01/07 00:44:22;;;;;;;4.63;2.40;;;;;;;;;;5014383;28;20076;-57
2021/01/07 00:46:50;;;;;;;5.30;2.57;;;;;;;;;;5014420;28;20018;-57
2021/01/07 00:49:17;;;;;;;3.83;2.40;;;;;;;;;;5014187;28;20026;-57
2021/01/07 00:51:44;;;;;;;7.53;2.73;;;;;;;;;;5014237;28;20069;-57
2021/01/07 00:54:11;;;;;;;6.77;2.00;;;;;;;;;;5014226;28;20033;-57
2021/01/07 00:56:38;;;;;;;3.70;1.90;;;;;;;;;;5014214;28;20040;-57
2021/01/07 00:59:06;;;;;;;9.20;2.37;;;;;;;;;;5014073;28;20124;-56
2021/01/07 01:01:33;;;;;;;2.97;1.70;;;;;;;;;;5014059;28;20029;-57
2021/01/07 01:04:00;;;;;;;4.33;2.20;;;;;;;;;;5013883;28;20029;-57
2021/01/07 01:06:30;;;;;;;8.20;2.40;;;;;;;;;;5014042;28;20096;-56
2021/01/07 01:08:57;;;;;;;4.23;2.30;;;;;;;;;;5013946;28;20017;-56
2021/01/07 01:11:27;;;;;;;4.53;2.23;;;;;;;;;;5013799;28;20563;-56
2021/01/07 01:13:54;;;;;;;3.13;1.60;;;;;;;;;;5013916;28;20014;-56
2021/01/07 01:16:26;;;;;;;8.47;2.40;;;;;;;;;;5013908;28;20022;-57
2021/01/07 01:18:53;;;;;;;5.90;1.97;;;;;;;;;;5013633;28;20036;-57
2021/01/07 01:21:21;;;;;;;4.53;2.30;;;;;;;;;;5013888;28;20045;-57
2021/01/07 01:23:48;;;;;;;3.93;1.53;;;;;;;;;;5013631;28;20571;-57
2021/01/07 01:26:18;;;;;;;5.33;1.40;;;;;;;;;;5013715;28;20477;-57
2021/01/07 01:28:45;;;;;;;6.07;1.90;;;;;;;;;;5013570;28;20026;-57
2021/01/07 01:31:12;;;;;;;3.73;2.07;;;;;;;;;;5013473;28;20041;-56
2021/01/07 01:33:39;;;;;;;6.20;2.00;;;;;;;;;;5013345;28;20018;-56
2021/01/07 01:36:07;;;;;;;7.07;2.43;;;;;;;;;;5013506;28;20101;-56
2021/01/07 01:38:34;;;;;;;6.63;1.87;;;;;;;;;;5013574;28;20049;-57
2021/01/07 01:41:07;;;;;;;3.07;1.50;;;;;;;;;;5013373;28;20053;-57
2021/01/07 01:43:35;;;;;;;3.97;1.40;;;;;;;;;;5013536;28;20376;-57
2021/01/07 01:46:02;;;;;;;4.23;2.17;;;;;;;;;;4995776;28;20034;-56
2021/01/07 01:48:30;;;;;;;4.03;2.47;;;;;;;;;;5013367;28;20087;-56
2021/01/07 01:50:59;;;;;;;9.30;2.40;;;;;;;;;;5013189;28;20108;-57
2021/01/07 01:53:26;;;;;;;9.97;3.63;;;;;;;;;;5013198;28;20022;-57
2021/01/07 01:55:53;;;;;;;7.10;3.13;;;;;;;;;;5013384;28;20088;-57
2021/01/07 01:58:20;;;;;;;5.70;2.97;;;;;;;;;;5013257;28;20022;-56
2021/01/07 02:00:46;;;;;;;6.53;3.20;;;;;;;;;;5013158;28;20030;-57
2021/01/07 02:03:13;;;;;;;8.73;3.43;;;;;;;;;;5013046;28;20022;-57
2021/01/07 02:05:40;;;;;;;8.23;3.63;;;;;;;;;;5013110;28;20027;-57
2021/01/07 02:08:09;;;;;;;10.83;3.07;;;;;;;;;;5013064;28;20077;-57
2021/01/07 02:10:39;;;;;;;7.13;2.87;;;;;;;;;;5012951;28;20081;-56
2021/01/07 02:13:07;;;;;;;10.23;3.47;;;;;;;;;;5013056;28;20034;-56
2021/01/07 02:15:50;;;;;;;8.03;3.87;;;;;;;;;;5013017;28;20109;-57
2021/01/07 02:18:17;;;;;;;12.30;4.20;;;;;;;;;;5013127;28;20026;-56
2021/01/07 02:20:44;;;;;;;9.03;3.67;;;;;;;;;;5012979;28;20052;-57
2021/01/07 02:23:13;;;;;;;9.20;4.03;;;;;;;;;;5012516;28;20072;-57
2021/01/07 02:25:40;;;;;;;12.53;4.47;;;;;;;;;;5012932;28;20030;-57
2021/01/07 02:28:08;;;;;;;11.70;4.10;;;;;;;;;;5012867;28;20033;-56
2021/01/07 02:30:35;;;;;;;10.97;4.57;;;;;;;;;;5012697;28;20034;-57
2021/01/07 02:33:02;;;;;;;9.27;4.33;;;;;;;;;;5015678;28;20026;-56
2021/01/07 02:35:29;;;;;;;13.63;4.60;;;;;;;;;;5016719;28;20026;-56
2021/01/07 02:37:55;;;;;;;9.13;3.97;;;;;;;;;;5016726;28;20416;-56
2021/01/07 02:40:22;;;;;;;8.47;3.47;;;;;;;;;;5016267;28;20385;-56
2021/01/07 02:42:49;;;;;;;6.23;3.47;;;;;;;;;;5016751;28;20029;-56
2021/01/07 02:45:16;;;;;;;11.00;3.50;;;;;;;;;;5016608;28;20029;-56
2021/01/07 02:47:43;;;;;;;6.13;3.20;;;;;;;;;;5016576;28;20081;-56
2021/01/07 02:50:10;;;;;;;6.43;3.37;;;;;;;;;;5016510;28;20380;-56
2021/01/07 02:52:37;;;;;;;5.47;2.70;;;;;;;;;;5016496;28;20051;-56
2021/01/07 02:55:05;;;;;;;9.47;2.80;;;;;;;;;;5016416;28;20121;-57
2021/01/07 02:57:32;;;;;;;5.33;2.67;;;;;;;;;;5016444;28;20030;-57
2021/01/07 02:59:59;;;;;;;7.47;2.93;;;;;;;;;;5016327;28;20146;-57
2021/01/07 03:02:26;;;;;;;7.20;2.53;;;;;;;;;;5016138;28;20021;-56
2021/01/07 03:04:52;;;;;;;6.50;3.00;;;;;;;;;;5016554;28;20026;-56
2021/01/07 03:07:19;;;;;;;6.93;2.70;;;;;;;;;;5016305;28;20097;-57
2021/01/07 03:09:47;;;;;;;4.73;2.43;;;;;;;;;;5015986;28;20062;-57
2021/01/07 03:12:18;;;;;;;5.47;2.70;;;;;;;;;;5016084;28;20037;-57
2021/01/07 03:14:45;;;;;;;8.90;2.50;;;;;;;;;;5016138;28;20490;-57
2021/01/07 03:17:12;;;;;;;4.70;2.80;;;;;;;;;;5015969;28;20409;-56
2021/01/07 03:19:39;;;;;;;5.37;2.30;;;;;;;;;;5015833;28;20030;-56
2021/01/07 03:22:06;;;;;;;7.90;2.60;;;;;;;;;;5016538;28;20053;-56
2021/01/07 03:24:34;;;;;;;6.17;2.40;;;;;;;;;;5015977;28;20033;-56
2021/01/07 03:27:01;;;;;;;5.50;2.53;;;;;;;;;;5015850;28;20073;-56
2021/01/07 03:29:28;;;;;;;10.07;2.87;;;;;;;;;;5015813;28;20029;-56
2021/01/07 03:31:55;;;;;;;9.23;3.00;;;;;;;;;;5015756;28;20467;-57
2021/01/07 03:34:22;;;;;;;7.10;2.70;;;;;;;;;;5015713;28;20041;-57
2021/01/07 03:36:49;;;;;;;5.57;2.90;;;;;;;;;;5015785;28;20037;-57
2021/01/07 03:39:16;;;;;;;5.47;2.83;;;;;;;;;;5015571;28;20077;-57
2021/01/07 03:41:43;;;;;;;4.80;2.80;;;;;;;;;;5015516;28;20038;-56
2021/01/07 03:44:10;;;;;;;7.70;4.03;;;;;;;;;;5015016;28;20038;-57
2021/01/07 03:46:37;;;;;;;5.93;3.63;;;;;;;;;;5015892;28;20030;-57
2021/01/07 03:49:04;;;;;;;6.87;3.50;;;;;;;;;;5015497;28;20476;-57
2021/01/07 03:51:31;;;;;;;6.03;2.90;;;;;;;;;;5015343;28;20034;-57
2021/01/07 03:53:58;;;;;;;5.27;3.20;;;;;;;;;;5015459;28;20026;-57
2021/01/07 03:56:24;;;;;;;7.00;3.70;;;;;;;;;;5015365;28;20037;-57
2021/01/07 03:58:51;;;;;;;5.27;3.20;;;;;;;;;;5015275;28;20030;-57
2021/01/07 04:01:18;;;;;;;5.77;3.87;;;;;;;;;;5015245;28;20037;-59
2021/01/07 04:03:45;;;;;;;5.27;3.70;;;;;;;;;;5015274;28;20018;-56
2021/01/07 04:06:12;;;;;;;6.63;3.47;;;;;;;;;;5015220;28;20157;-57
2021/01/07 04:08:39;;;;;;;7.07;3.57;;;;;;;;;;5015035;28;20026;-56
2021/01/07 04:11:05;;;;;;;5.37;2.83;;;;;;;;;;5014808;28;20074;-56
2021/01/07 04:13:32;;;;;;;6.00;3.20;;;;;;;;;;5014939;28;20487;-56
2021/01/07 04:15:59;;;;;;;5.47;3.07;;;;;;;;;;5015156;28;20052;-56
2021/01/07 04:18:26;;;;;;;4.67;3.07;;;;;;;;;;5014807;28;20018;-57
2021/01/07 04:20:52;;;;;;;6.37;2.93;;;;;;;;;;5014698;28;20101;-57
2021/01/07 04:23:19;;;;;;;6.17;3.87;;;;;;;;;;5015636;28;20053;-57
2021/01/07 04:25:46;;;;;;;6.27;3.50;;;;;;;;;;5014711;28;20054;-56
2021/01/07 04:28:13;;;;;;;6.37;3.37;;;;;;;;;;5014778;28;20410;-57
2021/01/07 04:30:40;;;;;;;9.73;4.30;;;;;;;;;;5014479;28;20044;-57
2021/01/07 04:33:07;;;;;;;8.80;4.50;;;;;;;;;;5014654;28;20017;-57
2021/01/07 04:35:33;;;;;;;5.83;3.60;;;;;;;;;;5014562;28;20037;-56
2021/01/07 04:38:00;;;;;;;5.73;3.57;;;;;;;;;;5014563;28;20022;-56
2021/01/07 04:40:27;;;;;;;7.37;3.40;;;;;;;;;;5014528;28;20033;-56
2021/01/07 04:42:53;;;;;;;5.60;3.10;;;;;;;;;;5014769;28;20109;-57
2021/01/07 04:45:20;;;;;;;5.73;3.60;;;;;;;;;;5014449;28;20026;-57
2021/01/07 04:47:50;;;;;;;8.10;3.50;;;;;;;;;;5014289;28;20386;-57
2021/01/07 04:50:17;;;;;;;9.20;4.97;;;;;;;;;;5014074;28;20030;-57
2021/01/07 04:52:45;;;;;;;6.70;4.07;;;;;;;;;;5014329;28;20166;-57
2021/01/07 04:55:12;;;;;;;7.77;4.17;;;;;;;;;;5013332;28;20036;-56
2021/01/07 04:57:38;;;;;;;9.67;4.27;;;;;;;;;;5014066;28;20048;-57
2021/01/07 05:00:06;;;;;;;8.00;3.90;;;;;;;;;;5014163;28;20037;-56
2021/01/07 05:02:41;;;;;;;8.70;3.43;;;;;;;;;;5014009;28;20396;-57
2021/01/07 05:05:08;;;;;;;5.50;3.58;;;;;;;;;;5014173;28;20456;-56
2021/01/07 05:07:39;;;;;;;7.13;3.13;;;;;;;;;;5013900;28;20029;-57
2021/01/07 05:10:07;;;;;;;5.93;2.33;;;;;;;;;;5013775;28;20022;-56
2021/01/07 05:12:35;;;;;;;6.47;3.00;;;;;;;;;;5013923;28;20038;-57
2021/01/07 05:15:01;;;;;;;7.60;3.20;;;;;;;;;;5013616;28;20017;-57
2021/01/07 05:17:29;;;;;;;8.23;3.00;;;;;;;;;;5013671;28;20026;-57
2021/01/07 05:19:56;;;;;;;4.70;2.60;;;;;;;;;;5013724;28;20493;-57
2021/01/07 05:22:44;;;;;;;8.50;2.80;;;;;;;;;;5014396;28;20110;-56
2021/01/07 05:25:14;;;;;;;6.70;3.00;;;;;;;;;;5013651;28;20053;-56
2021/01/07 05:27:44;;;;;;;6.33;3.13;;;;;;;;;;5013610;28;20021;-57
2021/01/07 05:30:12;;;;;;;8.23;3.03;;;;;;;;;;5013531;28;20124;-57
2021/01/07 05:32:40;;;;;;;5.47;2.50;;;;;;;;;;5013546;28;20029;-57
2021/01/07 05:35:07;;;;;;;5.73;2.67;;;;;;;;;;5013521;28;20030;-57
2021/01/07 05:37:36;;;;;;;6.97;2.60;;;;;;;;;;5013473;28;20044;-57
2021/01/07 05:40:03;;;;;;;4.97;2.60;;;;;;;;;;5013439;28;20029;-57
2021/01/07 05:42:36;;;;;;;4.23;2.53;;;;;;;;;;5013461;28;20025;-57
2021/01/07 05:45:05;;;;;;;8.10;2.57;;;;;;;;;;5013454;28;20022;-57
2021/01/07 05:47:37;;;;;;;5.27;2.57;;;;;;;;;;5013318;28;20473;-57
2021/01/07 05:50:06;;;;;;;6.73;2.67;;;;;;;;;;5013197;28;20067;-57
2021/01/07 05:52:33;;;;;;;5.13;2.50;;;;;;;;;;5013250;28;20100;-57
2021/01/07 05:55:01;;;;;;;4.23;2.00;;;;;;;;;;5013468;28;20037;-57
2021/01/07 05:57:29;;;;;;;7.57;2.40;;;;;;;;;;5013237;28;20495;-57
2021/01/07 05:59:57;;;;;;;7.60;3.10;;;;;;;;;;5013212;28;20029;-57
2021/01/07 06:02:24;;;;;;;3.63;2.10;;;;;;;;;;5013055;28;20057;-57
2021/01/07 06:04:52;;;;;;;6.27;2.67;;;;;;;;;;5013102;28;20098;-56
2021/01/07 06:07:19;;;;;;;7.27;2.30;;;;;;;;;;5012889;28;20037;-57
2021/01/07 06:09:48;;;;;;;4.03;2.40;;;;;;;;;;5012956;28;20388;-57
2021/01/07 06:12:15;;;;;;;5.23;2.57;;;;;;;;;;5012879;28;20515;-57
2021/01/07 06:14:46;;;;;;;3.60;2.70;;;;;;;;;;5012922;28;20417;-57
2021/01/07 06:17:13;;;;;;;6.90;2.50;;;;;;;;;;5012961;28;20066;-57
2021/01/07 06:19:44;;;;;;;5.27;2.80;;;;;;;;;;5012865;28;20037;-57
2021/01/07 06:22:17;;;;;;;5.03;2.37;;;;;;;;;;5013702;28;20497;-57
2021/01/07 06:24:46;;;;;;;7.37;3.00;;;;;;;;;;5012850;28;20022;-57
2021/01/07 06:27:45;;;;;;;3.70;2.40;;;;;;;;;;5012973;28;20388;-57
2021/01/07 06:30:11;;;;;;;4.90;2.37;;;;;;;;;;4959292;28;20058;-57
2021/01/07 06:32:39;;;;;;;4.60;2.67;;;;;;;;;;5013127;28;20038;-57
2021/01/07 06:35:24;;;;;;;5.10;2.83;;;;;;;;;;5012820;28;20026;-57
2021/01/07 06:37:51;;;;;;;4.85;2.72;;;;;;;;;;5012835;28;20029;-56
2021/01/07 06:40:19;;;;;;;5.63;3.40;;;;;;;;;;5012665;28;20081;-56
2021/01/07 06:42:50;;;;;;;7.07;3.53;;;;;;;;;;5012738;28;20555;-57
2021/01/07 06:45:20;;;;;;;7.90;3.73;;;;;;;;;;4995113;28;20022;-57
2021/01/07 06:47:47;;;;;;;5.37;3.33;;;;;;;;;;5012689;28;20073;-56
2021/01/07 06:50:14;;;;;;;5.10;2.93;;;;;;;;;;5012524;28;20026;-56
2021/01/07 06:52:41;;;;;;;8.07;3.20;;;;;;;;;;5012297;28;20026;-56
2021/01/07 06:55:12;;;;;;;4.93;3.27;;;;;;;;;;5012564;28;20029;-57
2021/01/07 06:57:49;;;;;;;5.97;3.27;;;;;;;;;;5012567;28;20022;-56
2021/01/07 07:00:17;;;;;;;4.17;2.90;;;;;;;;;;5012487;28;20529;-57
2021/01/07 07:03:00;;;;;;;6.10;3.30;;;;;;;;;;5012689;28;20022;-56
2021/01/07 07:05:31;;;;;;;5.97;2.90;;;;;;;;;;5012503;28;20473;-56
2021/01/07 07:08:23;;;;;;;4.63;3.00;;;;;;;;;;5012638;28;20097;-56
2021/01/07 07:10:53;;;;;;;5.63;3.33;;;;;;;;;;4975300;28;20073;-56
2021/01/07 07:13:21;;;;;;;13.17;3.70;;;;;;;;;;5012570;28;20018;-56
2021/01/07 07:15:49;;;;;;;6.63;3.47;;;;;;;;;;5012612;28;20049;-56
2021/01/07 07:18:34;;;;;;;7.23;3.37;;;;;;;;;;5014001;28;20539;-56
2021/01/07 07:21:14;;;;;;;6.88;3.33;;;;;;;;;;5016205;28;20417;-57
2021/01/07 07:23:42;;;;;;;4.83;3.17;;;;;;;;;;5016647;28;20058;-56
2021/01/07 07:26:11;;;;;;;7.43;3.20;;;;;;;;;;5016153;28;20050;-56
2021/01/07 07:28:37;;;;;;;5.90;3.20;;;;;;;;;;5015924;28;20113;-56
2021/01/07 07:31:04;;;;;;;5.23;3.20;;;;;;;;;;5015618;28;20113;-56
2021/01/07 07:33:35;;;;;;;8.37;3.73;;;;;;;;;;5015820;28;20058;-57
2021/01/07 07:36:02;;;;;;;6.13;3.37;;;;;;;;;;5015649;28;20100;-57
2021/01/07 07:38:33;;;;;;;6.80;3.27;;;;;;;;;;5015689;28;20026;-56
2021/01/07 07:41:07;;;;;;;5.73;3.10;;;;;;;;;;5015547;28;20036;-56
2021/01/07 07:43:34;;;;;;;5.33;3.23;;;;;;;;;;5015563;28;20033;-56
2021/01/07 07:46:01;;;;;;;4.17;2.93;;;;;;;;;;5015515;28;20025;-56
2021/01/07 07:48:29;;;;;;;8.23;3.50;;;;;;;;;;5015475;28;20421;-56
2021/01/07 07:51:05;;;;;;;5.90;3.03;;;;;;;;;;5015359;28;20037;-57
2021/01/07 07:53:32;;;;;;;4.33;2.80;;;;;;;;;;5015488;28;20393;-56
2021/01/07 07:55:59;;;;;;;5.73;3.03;;;;;;;;;;5015396;28;20030;-57
2021/01/07 07:58:27;;;;;;;7.40;3.30;;;;;;;;;;5015369;28;20041;-56
2021/01/07 08:00:57;;;;;;;5.67;3.17;;;;;;;;;;5015268;28;20036;-56
2021/01/07 08:03:25;;;;;;;5.77;2.97;;;;;;;;;;5015201;28;20113;-56
2021/01/07 08:05:52;;;;;;;7.13;3.13;;;;;;;;;;5015181;28;20112;-56
2021/01/07 08:08:26;;;;;;;5.90;2.83;;;;;;;;;;5015102;28;20022;-57
2021/01/07 08:10:53;;;;;;;6.23;3.10;;;;;;;;;;5014933;28;20373;-56
2021/01/07 08:13:21;;;;;;;4.83;2.73;;;;;;;;;;5014921;28;20073;-57
2021/01/07 08:15:49;;;;;;;6.10;2.63;;;;;;;;;;5014891;28;20384;-57
2021/01/07 08:18:16;;;;;;;4.07;2.50;;;;;;;;;;5014900;28;20388;-57
2021/01/07 08:20:43;;;;;;;4.20;2.23;;;;;;;;;;5014960;28;20029;-57
2021/01/07 08:23:11;;;;;;;4.47;2.37;;;;;;;;;;5015598;28;20050;-56
2021/01/07 08:25:41;;;;;;;7.97;2.60;;;;;;;;;;5014878;28;20025;-56
2021/01/07 08:28:14;;;;;;;4.23;2.50;;;;;;;;;;5014694;28;20498;-56
2021/01/07 08:30:44;;;;;;;5.30;2.20;;;;;;;;;;5014627;28;20108;-56
2021/01/07 08:33:12;;;;;;;3.93;2.20;;;;;;;;;;5014556;28;20498;-56
2021/01/07 08:35:39;;;;;;;3.67;2.27;;;;;;;;;;5014572;28;20037;-56
2021/01/07 08:38:06;;;;;;;4.00;2.27;;;;;;;;;;5014584;28;20124;-56
2021/01/07 08:40:33;;;;;;;4.30;2.27;;;;;;;;;;5014530;28;20048;-56
2021/01/07 08:43:10;;;;;;;5.07;3.00;;;;;;;;;;5014371;28;20030;-56
2021/01/07 08:45:37;;;;;;;8.33;2.83;;;;;;;;;;5014699;28;20037;-57
2021/01/07 08:48:05;;;;;;;5.33;2.90;;;;;;;;;;5014433;28;20030;-56
2021/01/07 08:50:33;;;;;;;4.83;3.30;;;;;;;;;;5014260;28;20041;-56
2021/01/07 08:52:59;;;;;;;5.47;2.53;;;;;;;;;;5014595;28;20069;-56
2021/01/07 08:55:44;;;;;;;3.93;2.40;;;;;;;;;;5014170;28;20037;-56
2021/01/07 08:58:11;;;;;;;4.90;2.80;;;;;;;;;;5014181;28;20029;-56
2021/01/07 09:00:38;;;;;;;3.67;2.30;;;;;;;;;;5013999;28;20125;-56
2021/01/07 09:03:05;;;;;;;3.60;2.27;;;;;;;;;;5014163;28;20049;-56
2021/01/07 09:05:33;;;;;;;3.87;2.40;;;;;;;;;;5014098;28;20045;-56
2021/01/07 09:08:09;;;;;;;4.57;2.40;;;;;;;;;;5014314;28;20432;-56
2021/01/07 09:10:36;;;;;;;7.20;2.77;;;;;;;;;;5013767;28;20349;-56
2021/01/07 09:13:19;;;;;;;6.93;3.03;;;;;;;;;;4996377;28;20472;-56
2021/01/07 09:15:46;;;;;;;4.20;2.40;;;;;;;;;;5013869;28;20034;-56
2021/01/07 09:18:12;;;;;;;4.77;2.73;;;;;;;;;;5013935;28;20372;-56
2021/01/07 09:20:39;;;;;;;4.00;2.27;;;;;;;;;;5013624;28;20381;-56
2021/01/07 09:23:10;;;;;;;5.50;2.40;;;;;;;;;;5014584;28;20045;-56
2021/01/07 09:25:37;;;;;;;4.83;2.80;;;;;;;;;;5013801;28;20028;-56
2021/01/07 09:28:04;;;;;;;4.33;2.40;;;;;;;;;;5013617;28;20022;-56
2021/01/07 09:30:31;;;;;;;7.10;2.83;;;;;;;;;;5013455;28;20113;-56
2021/01/07 09:32:59;;;;;;;5.10;2.70;;;;;;;;;;5013571;28;20038;-56
2021/01/07 09:35:26;;;;;;;6.70;2.90;;;;;;;;;;5013641;28;20018;-56
2021/01/07 09:37:53;;;;;;;5.87;2.90;;;;;;;;;;5013552;28;20033;-56
2021/01/07 09:40:20;;;;;;;4.77;2.90;;;;;;;;;;5013182;28;20034;-56
2021/01/07 09:42:47;;;;;;;5.77;2.83;;;;;;;;;;5013404;28;20388;-56
2021/01/07 09:45:14;;;;;;;4.60;2.80;;;;;;;;;;5013435;28;20030;-56
2021/01/07 09:47:41;;;;;;;4.53;2.80;;;;;;;;;;5013426;28;20051;-56
2021/01/07 09:50:09;;;;;;;3.83;2.57;;;;;;;;;;5013078;28;20026;-56
2021/01/07 09:52:36;;;;;;;4.60;2.73;;;;;;;;;;5013336;28;20034;-56
2021/01/07 09:55:04;;;;;;;4.63;2.73;;;;;;;;;;5013164;28;20033;-56
2021/01/07 09:57:31;;;;;;;4.60;2.93;;;;;;;;;;5013270;28;20112;-56
2021/01/07 09:59:57;;;;;;;3.83;2.73;;;;;;;;;;5013037;28;20057;-56
2021/01/07 10:02:24;;;;;;;5.70;3.17;;;;;;;;;;5013253;28;20033;-56
2021/01/07 10:04:51;;;;;;;6.23;3.17;;;;;;;;;;5013152;28;20050;-56
2021/01/07 10:07:18;;;;;;;4.20;2.50;;;;;;;;;;5013319;28;20029;-56
2021/01/07 10:09:44;;;;;;;4.10;2.60;;;;;;;;;;5013090;28;20038;-56
2021/01/07 10:12:11;;;;;;;5.63;3.10;;;;;;;;;;5012900;28;20044;-56
2021/01/07 10:14:38;;;;;;;3.90;2.60;;;;;;;;;;5013068;28;20064;-56
2021/01/07 10:17:06;;;;;;;3.73;2.40;;;;;;;;;;5013080;28;20030;-56
2021/01/07 10:19:34;;;;;;;4.70;2.87;;;;;;;;;;5012981;28;20106;-56
2021/01/07 10:22:06;;;;;;;5.23;2.70;;;;;;;;;;5013656;28;20491;-57
2021/01/07 10:24:33;;;;;;;4.43;2.70;;;;;;;;;;5012870;28;20038;-56
2021/01/07 10:27:04;;;;;;;5.67;2.57;;;;;;;;;;5012853;28;20061;-56
2021/01/07 10:29:35;;;;;;;4.70;2.50;;;;;;;;;;5012942;28;20026;-56
2021/01/07 10:32:06;;;;;;;7.13;2.97;;;;;;;;;;5012991;28;20121;-56
2021/01/07 10:34:36;;;;;;;4.13;2.73;;;;;;;;;;5012822;28;20018;-56
2021/01/07 10:37:04;;;;;;;5.37;3.10;;;;;;;;;;5012803;28;20092;-56
2021/01/07 10:39:35;;;;;;;4.60;2.40;;;;;;;;;;5012800;28;20064;-56
2021/01/07 10:42:04;;;;;;;4.33;2.47;;;;;;;;;;5012683;28;20077;-56
2021/01/07 10:44:33;;;;;;;5.23;2.70;;;;;;;;;;5012913;28;20026;-56
2021/01/07 10:47:01;;;;;;;4.53;2.30;;;;;;;;;;5012615;28;20026;-56
2021/01/07 10:49:29;;;;;;;7.00;3.60;;;;;;;;;;5012675;28;20409;-56
2021/01/07 10:52:04;;;;;;;4.50;2.77;;;;;;;;;;5012706;28;20051;-56
2021/01/07 10:54:31;;;;;;;5.23;2.80;;;;;;;;;;5016931;28;20022;-56
2021/01/07 10:57:01;;;;;;;5.63;2.90;;;;;;;;;;5016503;28;20021;-56
2021/01/07 10:59:41;;;;;;;5.30;2.80;;;;;;;;;;5016313;28;20022;-56
2021/01/07 11:02:14;;;;;;;5.70;3.03;;;;;;;;;;5016603;28;20022;-56
2021/01/07 11:04:41;;;;;;;4.67;3.00;;;;;;;;;;5016301;28;20109;-56
2021/01/07 11:07:27;;;;;;;4.13;2.83;;;;;;;;;;5016233;28;20084;-56
2021/01/07 11:09:59;;;;;;;5.13;2.20;;;;;;;;;;5016211;28;20029;-56
2021/01/07 11:12:31;;;;;;;3.67;2.60;;;;;;;;;;5016210;28;20038;-56
2021/01/07 11:15:02;;;;;;;4.63;2.53;;;;;;;;;;5016095;28;20041;-56
2021/01/07 11:17:32;;;;;;;3.67;2.20;;;;;;;;;;5016081;28;20026;-56
2021/01/07 11:20:00;;;;;;;3.93;2.90;;;;;;;;;;5015874;28;20053;-56
2021/01/07 11:22:28;;;;;;;6.73;2.30;;;;;;;;;;5016641;28;20034;-56
2021/01/07 11:24:55;;;;;;;5.80;2.83;;;;;;;;;;5015900;28;20264;-56
2021/01/07 11:27:23;;;;;;;4.33;2.70;;;;;;;;;;5015848;28;20251;-56
2021/01/07 11:29:51;;;;;;;8.73;2.70;;;;;;;;;;5015854;28;20026;-56
2021/01/07 11:32:17;;;;;;;3.40;2.30;;;;;;;;;;5015776;28;20506;-56
2021/01/07 11:34:45;;;;;;;6.20;2.70;;;;;;;;;;5015738;28;20030;-56
2021/01/07 11:37:16;;;;;;;4.60;3.10;;;;;;;;;;5015671;28;20025;-56
2021/01/07 11:39:49;;;;;;;4.70;2.70;;;;;;;;;;5015689;28;20018;-56
2021/01/07 11:42:25;;;;;;;6.80;2.77;;;;;;;;;;5015661;28;20030;-56
2021/01/07 11:45:00;;;;;;;4.50;2.50;;;;;;;;;;5015573;28;20084;-56
2021/01/07 11:47:30;;;;;;;4.80;2.50;;;;;;;;;;5015656;28;20022;-56
2021/01/07 11:49:59;;;;;;;5.10;2.67;;;;;;;;;;5015811;28;20034;-56
2021/01/07 11:52:26;;;;;;;4.87;2.97;;;;;;;;;;5015555;28;20076;-56
2021/01/07 11:54:53;;;;;;;9.77;2.70;;;;;;;;;;5015484;28;20029;-56
2021/01/07 11:57:20;;;;;;;6.10;2.90;;;;;;;;;;5015290;28;20259;-56
2021/01/07 11:59:47;;;;;;;5.60;2.80;;;;;;;;;;5015111;28;20247;-56
2021/01/07 12:02:15;;;;;;;4.10;2.53;;;;;;;;;;5015302;28;20053;-56
2021/01/07 12:04:45;;;;;;;5.33;2.50;;;;;;;;;;5014899;28;20021;-56
2021/01/07 12:07:30;;;;;;;4.67;3.00;;;;;;;;;;5015200;28;20318;-56
2021/01/07 12:09:59;;;;;;;6.50;2.40;;;;;;;;;;5014966;28;20034;-56
2021/01/07 12:12:27;;;;;;;6.57;3.63;;;;;;;;;;5015039;28;20036;-56
2021/01/07 12:14:54;;;;;;;4.77;2.97;;;;;;;;;;5015101;28;20251;-56
2021/01/07 12:17:21;;;;;;;10.30;2.83;;;;;;;;;;5014981;28;20340;-56
2021/01/07 12:19:49;;;;;;;4.33;2.70;;;;;;;;;;5014723;28;20255;-56
2021/01/07 12:22:16;;;;;;;5.30;2.63;;;;;;;;;;5015551;28;20748;-56
2021/01/07 12:24:44;;;;;;;5.17;2.63;;;;;;;;;;5014766;28;20259;-56
2021/01/07 12:27:11;;;;;;;4.57;2.50;;;;;;;;;;5014848;28;20773;-56
2021/01/07 12:29:38;;;;;;;4.43;2.67;;;;;;;;;;5014663;28;20617;-56
2021/01/07 12:32:37;;;;;;;7.13;2.70;;;;;;;;;;5014390;28;20649;-56
2021/01/07 12:35:24;;;;;;;4.30;2.40;;;;;;;;;;4961355;28;20277;-56
2021/01/07 12:38:09;;;;;;;5.00;2.77;;;;;;;;;;5014504;28;20614;-56
2021/01/07 12:40:36;;;;;;;7.55;3.40;;;;;;;;;;5014560;28;20248;-56
2021/01/07 12:43:03;;;;;;;5.60;3.40;;;;;;;;;;5014560;28;20022;-56
2021/01/07 12:45:30;;;;;;;6.27;3.63;;;;;;;;;;5014592;28;20286;-56
2021/01/07 12:47:57;;;;;;;10.53;4.10;;;;;;;;;;5014347;28;20262;-56
2021/01/07 12:50:24;;;;;;;6.20;3.10;;;;;;;;;;5014343;28;20283;-56
2021/01/07 12:52:50;;;;;;;6.13;2.70;;;;;;;;;;5014324;28;20338;-56
2021/01/07 12:55:17;;;;;;;7.93;3.00;;;;;;;;;;5014334;28;20303;-56
2021/01/07 12:57:54;;;;;;;4.40;2.80;;;;;;;;;;5014235;28;20247;-56
2021/01/07 13:00:23;;;;;;;8.80;3.20;;;;;;;;;;5014052;28;20268;-56
2021/01/07 13:03:10;;;;;;;5.17;2.90;;;;;;;;;;5014108;28;20252;-56
2021/01/07 13:05:37;;;;;;;6.47;2.97;;;;;;;;;;5014079;28;20322;-56
2021/01/07 13:08:05;;;;;;;7.27;3.27;;;;;;;;;;5014056;28;20251;-56
2021/01/07 13:10:39;;;;;;;4.57;2.40;;;;;;;;;;5014205;28;20276;-56
2021/01/07 13:13:07;;;;;;;4.83;2.90;;;;;;;;;;5014141;28;20291;-56
2021/01/07 13:15:34;;;;;;;5.30;4.07;;;;;;;;;;5013148;28;20248;-56
2021/01/07 13:18:01;;;;;;;5.33;3.13;;;;;;;;;;5013975;28;20252;-56
2021/01/07 13:20:28;;;;;;;9.27;3.50;;;;;;;;;;5013811;28;20240;-56
2021/01/07 13:22:56;;;;;;;5.73;2.93;;;;;;;;;;5014495;28;20657;-56
2021/01/07 13:25:23;;;;;;;6.87;3.20;;;;;;;;;;5013754;28;20335;-56
2021/01/07 13:27:50;;;;;;;5.43;3.10;;;;;;;;;;5013754;28;20591;-56
2021/01/07 13:30:18;;;;;;;5.03;2.97;;;;;;;;;;5013625;28;20337;-56
2021/01/07 13:32:47;;;;;;;5.47;2.87;;;;;;;;;;5013633;28;20339;-56
2021/01/07 13:35:17;;;;;;;6.87;2.70;;;;;;;;;;5013492;28;20659;-56
2021/01/07 13:37:48;;;;;;;5.10;3.13;;;;;;;;;;5013550;28;20279;-56
2021/01/07 13:40:16;;;;;;;4.37;3.07;;;;;;;;;;5013501;28;20265;-56
2021/01/07 13:42:43;;;;;;;8.20;4.07;;;;;;;;;;5013358;28;20260;-56
2021/01/07 13:45:11;;;;;;;7.93;4.73;;;;;;;;;;5013390;28;20311;-56
2021/01/07 13:47:39;;;;;;;5.13;3.37;;;;;;;;;;5013333;28;20842;-56
2021/01/07 13:50:07;;;;;;;5.97;4.00;;;;;;;;;;5013272;28;20255;-56
2021/01/07 13:52:38;;;;;;;11.83;3.40;;;;;;;;;;5013434;28;20271;-56
2021/01/07 13:55:06;;;;;;;7.73;3.93;;;;;;;;;;5013376;28;20346;-56
2021/01/07 13:57:33;;;;;;;7.70;3.40;;;;;;;;;;5013244;28;20761;-56
2021/01/07 14:00:00;;;;;;;7.47;3.63;;;;;;;;;;5013144;28;20248;-56
2021/01/07 14:02:27;;;;;;;4.43;3.10;;;;;;;;;;5013263;28;20588;-56
2021/01/07 14:04:54;;;;;;;7.43;4.50;;;;;;;;;;5013127;28;20248;-56
2021/01/07 14:07:26;;;;;;;8.00;4.67;;;;;;;;;;5013124;28;20247;-56
2021/01/07 14:09:57;;;;;;;10.60;4.67;;;;;;;;;;5012933;28;20255;-56
2021/01/07 14:12:29;;;;;;;7.53;4.27;;;;;;;;;;5012797;28;20290;-56
2021/01/07 14:14:56;;;;;;;6.97;4.73;;;;;;;;;;5012935;28;20734;-56
2021/01/07 14:17:23;;;;;;;8.53;4.30;;;;;;;;;;5013037;28;20287;-56
2021/01/07 14:19:56;;;;;;;7.83;3.23;;;;;;;;;;5012879;28;20255;-56
2021/01/07 14:22:23;;;;;;;5.30;3.20;;;;;;;;;;5013644;28;20247;-56
2021/01/07 14:24:50;;;;;;;4.43;2.90;;;;;;;;;;5013064;28;20350;-56
2021/01/07 14:27:37;;;;;;;4.93;3.00;;;;;;;;;;5014734;28;20481;-56
2021/01/07 14:30:06;;;;;;;8.20;2.80;;;;;;;;;;5016705;28;20052;-56
2021/01/07 14:32:36;;;;;;;5.30;2.90;;;;;;;;;;5016974;28;20037;-56
2021/01/07 14:35:10;;;;;;;7.00;3.20;;;;;;;;;;5016840;28;20030;-56
2021/01/07 14:37:38;;;;;;;7.03;3.77;;;;;;;;;;5016811;28;20030;-56
2021/01/07 14:40:06;;;;;;;6.53;3.27;;;;;;;;;;5016762;28;20255;-56
2021/01/07 14:42:34;;;;;;;5.13;3.57;;;;;;;;;;5016739;28;20026;-56
2021/01/07 14:45:02;;;;;;;6.63;3.10;;;;;;;;;;5016711;28;20050;-56
2021/01/07 14:47:29;;;;;;;5.63;3.13;;;;;;;;;;5016448;28;20416;-56
2021/01/07 14:49:57;;;;;;;6.47;3.37;;;;;;;;;;5016497;28;20056;-56
2021/01/07 14:52:24;;;;;;;6.73;3.10;;;;;;;;;;5016610;28;20137;-56